Springdale, WA

9:35 AM PDT on July 29, 2016 (GMT -0700)
Rocky Point | | Change Station
Active Advisory: Fire Weather Watch

Elev 1549 ft 47.89 °N, 117.67 °W | Updated 9 minutes ago

Clear
Clear
78.6 °F
Feels Like 80 °F
N
2.2
Wind Variable Wind from SSE

Today
High -- | Low -- °F
--% Chance of Precip.
Yesterday
High -- | Low -- °F
Precip. -- in
Pressure 29.96 in
Visibility 10.0 miles
Clouds Clear
Heat Index 80 °F
Dew Point 58 °F
Humidity 49%
Rainfall 0.00 in
Snow Depth Not available.
5:23 AM 8:30 PM
Waning Crescent, 21% visible
METAR KDEW 291553Z AUTO 08004KT 10SM CLR 26/11 A3001 RMK AO2 SLP144 T02560111
Pressure 29.96 in
Visibility 10.0 miles
Clouds Clear
Heat Index 80 °F
Dew Point 58 °F
Humidity 49%
Rainfall 0.00 in
Snow Depth Not available.
5:23 AM 8:30 PM
Waning Crescent, 21% visible
METAR KDEW 291553Z AUTO 08004KT 10SM CLR 26/11 A3001 RMK AO2 SLP144 T02560111

10-Day Weather Forecast

Almanac

Astronomy

Jul. 29, 2016 Rise Set
Actual Time
Civil Twilight
Nautical Twilight
Astronomical Twilight
Moon
Length of Visible Light
Length of Day
Tomorrow will be .
, % of the Moon is Illuminated

Today's Extremes

State Highs State Lows

Community

WunderPhotos

Upload Photos

1,928,367 photos uploaded!

WunderBlog® & News

Nearby

Air Quality

  Air Quality AQ Index Pollutant
Not available.

Snow Depth

Station Depth Elevation

Earthquake Activity

City Distance Mag. Time & Date
Minimum magnitude displayed is 2.5.

Coastal Water Temperatures

Place Temperature

Stations

Nearby Weather Stations

Station Location Temp. Windchill Dew Point Humidity Wind Precip. Elev Updated Type
                   

Watches & Warnings

Fire Weather Watch
Issued: 6:01 AM PDT Jul. 29, 2016 – National Weather Service

... Fire Weather Watch in effect from Saturday afternoon through
Saturday evening for wind and low relative humidity for
East Washington Palouse and Spokane area...

The National Weather Service in Spokane has issued a Fire Weather
Watch for wind and low relative humidity... which is in effect
from Saturday afternoon through Saturday evening.

* Affected area: fire weather zone 674 East Washington Palouse
and Spokane area (zone 674).

* Winds: southwest around 15 mph with gusts up to 25 mph.

* Relative humidities: 11 to 22 percent.

* Impacts: dry and breezy conditions will lead to the rapid
spread of any new fire starts.

* Communities: Davenport... Sprague... La Crosse... Spokane...
Rosalia... Colfax... Pullman.

Precautionary/preparedness actions...

A Fire Weather Watch means that critical fire weather conditions
are forecast to occur. Listen for later forecasts and possible
red flag warnings.